Date,TemperatureHighF,TemperatureAvgF,TemperatureLowF,DewpointHighF,DewpointAvgF,DewpointLowF,HumidityHigh,HumidityAvg,HumidityLow,PressureMaxIn,PressureMinIn,WindSpeedMaxMPH,WindSpeedAvgMPH,GustSpeedMaxMPH,PrecipitationSumIn
2013-2-1,31,25,17,27,10,3,90,53,33,30.35,29.76,12,4,19,0.00
2013-2-2,32,23,0,25,13,0,93,67,44,30.35,29.94,6,2,9,0.00
2013-2-3,40,30,0,28,22,0,92,72,50,29.95,29.79,8,3,15,0.01
2013-2-4,35,30,0,21,16,0,66,57,47,30.08,29.87,6,2,9,0.01
2013-2-5,55,41,31,35,29,21,72,63,44,29.92,29.81,8,4,12,0.00
2013-2-6,53,41,0,33,28,0,81,62,37,30.36,29.91,7,2,11,0.00
2013-2-7,38,34,0,30,25,0,91,69,59,30.39,30.11,5,1,9,0.00
2013-2-8,50,37,0,40,30,0,96,78,57,30.11,29.75,12,4,24,0.24
2013-2-9,47,37,0,23,15,0,62,41,25,30.36,29.94,11,4,21,0.01
2013-2-10,44,36,0,29,19,0,76,50,36,30.45,30.18,6,2,9,0.01
2013-2-11,55,45,0,50,38,0,97,80,28,30.19,29.77,11,4,19,0.05
2013-2-12,61,50,41,29,25,17,52,39,26,29.98,29.83,16,4,28,0.01
2013-2-13,47,39,34,35,30,23,95,73,39,29.92,29.63,6,2,11,0.03
2013-2-14,52,40,0,33,28,0,95,62,35,30.01,29.80,6,2,8,0.03
2013-2-15,61,45,34,38,32,27,84,61,36,30.03,29.87,8,3,13,0.03
2013-2-16,40,34,27,35,27,14,95,76,55,29.98,29.82,11,2,15,0.04
2013-2-17,29,24,20,16,7,2,70,48,33,30.22,29.85,12,5,18,0.01
2013-2-18,46,32,18,24,13,5,62,48,25,30.34,30.11,8,3,10,0.00
2013-2-19,45,37,33,41,28,18,94,72,46,30.12,29.74,11,5,18,0.17
2013-2-20,45,34,27,19,15,12,55,46,31,30.12,29.86,11,4,18,0.02
2013-2-21,44,32,24,19,15,12,61,50,34,30.30,30.10,7,2,12,0.00
2013-2-22,36,32,30,28,23,16,85,69,55,30.33,30.13,4,1,7,0.01
2013-2-23,52,38,31,41,34,28,95,85,66,30.16,29.80,3,1,5,0.01
2013-2-24,57,42,0,42,30,0,97,66,28,30.10,29.79,10,3,14,0.01
2013-2-25,43,34,27,21,19,16,65,53,38,30.21,30.09,8,2,10,0.01
2013-2-26,41,35,0,40,30,0,97,83,58,30.18,29.57,8,3,15,0.94
2013-2-27,54,44,37,44,36,32,97,74,48,29.70,29.55,8,3,14,0.07
2013-2-28,45,40,36,33,28,25,73,63,46,29.76,29.63,8,4,15,0.00